Time;durP1;ratioP1;P1;durP2;ratioP2;P2;SDS_P1;SDS_P2;PMS_P1;PMS_P2;Temp;Humidity;BMP_temperature;BMP_pressure;BME280_temperature;BME280_humidity;BME280_pressure;Samples;Min_cycle;Max_cycle;Signal;HPM_P1;HPM_P2
2022/07/16 00:02:14;;;;;;;4.20;2.30;;;;;;;25.42;28.35;101705.19;4989198;28;20038;-74
2022/07/16 00:04:42;;;;;;;4.47;2.03;;;;;;;25.41;28.52;101701.56;4987612;28;20040;-73
2022/07/16 00:07:12;;;;;;;3.75;2.30;;;;;;;25.42;28.49;101696.84;4985137;28;20125;-73
2022/07/16 00:09:42;;;;;;;4.07;2.28;;;;;;;25.37;28.68;101695.47;4988944;28;20046;-74
2022/07/16 00:12:10;;;;;;;2.75;1.80;;;;;;;25.35;28.19;101694.81;4973113;28;20038;-74
2022/07/16 00:14:38;;;;;;;4.90;2.13;;;;;;;25.33;28.24;101699.66;4972227;28;20379;-74
2022/07/16 00:17:06;;;;;;;4.30;2.10;;;;;;;25.30;28.34;101694.44;4991710;28;20038;-73
2022/07/16 00:19:34;;;;;;;3.75;1.63;;;;;;;25.28;28.70;101696.53;4990079;28;20062;-73
2022/07/16 00:22:02;;;;;;;4.32;2.10;;;;;;;25.26;28.60;101686.66;4987976;28;20048;-73
2022/07/16 00:24:31;;;;;;;3.13;2.00;;;;;;;25.24;29.05;101695.16;4990857;28;20038;-73
2022/07/16 00:26:59;;;;;;;3.05;1.85;;;;;;;25.20;28.94;101702.13;4991246;28;20045;-73
2022/07/16 00:29:28;;;;;;;2.90;1.98;;;;;;;25.19;28.80;101700.41;4972437;28;20555;-73
2022/07/16 00:31:57;;;;;;;3.55;1.95;;;;;;;25.17;29.21;101696.94;4971803;28;20089;-73
2022/07/16 00:34:25;;;;;;;3.35;1.77;;;;;;;25.15;29.36;101700.91;4990731;28;20129;-73
2022/07/16 00:36:53;;;;;;;4.28;1.98;;;;;;;25.12;29.26;101702.13;4992263;28;20054;-74
2022/07/16 00:39:21;;;;;;;4.03;1.80;;;;;;;25.09;29.49;101691.38;4989808;28;20125;-74
2022/07/16 00:41:51;;;;;;;3.13;1.83;;;;;;;25.09;29.39;101699.72;4980810;28;20053;-74
2022/07/16 00:44:20;;;;;;;3.10;1.80;;;;;;;25.07;29.69;101699.03;4988287;28;20042;-74
2022/07/16 00:46:50;;;;;;;3.50;2.03;;;;;;;25.04;29.47;101701.31;4989912;28;20097;-74
2022/07/16 00:49:20;;;;;;;3.65;1.80;;;;;;;25.02;29.77;101701.47;4973631;28;20105;-74
2022/07/16 00:51:50;;;;;;;3.50;1.85;;;;;;;25.02;29.91;101695.94;4972055;28;20046;-74
2022/07/16 00:54:19;;;;;;;3.85;2.08;;;;;;;24.97;30.20;101692.78;4990659;28;20046;-74
2022/07/16 00:56:47;;;;;;;3.83;2.33;;;;;;;24.94;29.72;101688.47;4987966;28;20074;-74
2022/07/16 00:59:17;;;;;;;3.10;1.95;;;;;;;24.94;30.45;101688.47;4988328;28;20065;-74
2022/07/16 01:01:46;;;;;;;3.80;1.88;;;;;;;24.92;29.98;101698.00;4987710;28;20062;-74
2022/07/16 01:04:15;;;;;;;5.30;1.90;;;;;;;24.90;30.01;101697.28;4990720;28;20069;-74
2022/07/16 01:06:45;;;;;;;4.57;1.90;;;;;;;24.89;30.18;101706.66;4989873;28;20042;-74
2022/07/16 01:09:15;;;;;;;3.92;2.00;;;;;;;24.87;30.28;101700.44;4988487;28;20069;-74
2022/07/16 01:11:43;;;;;;;3.28;1.63;;;;;;;24.84;30.59;101701.63;4990713;28;20093;-74
2022/07/16 01:14:12;;;;;;;4.57;2.20;;;;;;;24.82;30.31;101706.50;4987164;28;20077;-74
2022/07/16 01:16:42;;;;;;;2.80;1.67;;;;;;;24.84;30.95;101714.66;4989806;28;20038;-74
2022/07/16 01:19:10;;;;;;;3.08;2.00;;;;;;;24.80;30.62;101707.69;4989170;28;20125;-74
2022/07/16 01:21:39;;;;;;;3.13;1.92;;;;;;;24.79;30.57;101714.31;4988871;28;20061;-74
2022/07/16 01:24:08;;;;;;;4.22;1.80;;;;;;;24.77;30.98;101708.94;4990278;28;20048;-74
2022/07/16 01:26:37;;;;;;;3.80;1.83;;;;;;;24.74;31.24;101702.84;4990112;28;20422;-74
2022/07/16 01:29:05;;;;;;;3.72;1.92;;;;;;;24.70;30.76;101699.56;4991407;28;20167;-73
2022/07/16 01:31:33;;;;;;;4.78;2.08;;;;;;;24.67;31.03;101694.34;4985630;28;20658;-74
2022/07/16 01:36:54;;;;;;;3.92;1.75;;;;;;;24.63;32.06;101692.94;4988491;28;20048;-74
2022/07/16 01:39:24;;;;;;;5.20;1.88;;;;;;;24.61;31.20;101695.06;4989972;28;20050;-74
2022/07/16 01:41:52;;;;;;;3.22;1.73;;;;;;;24.56;31.69;101690.00;4971477;28;20142;-74
2022/07/16 01:44:21;;;;;;;3.85;1.60;;;;;;;24.54;31.75;101694.84;4990974;28;20051;-74
2022/07/16 01:46:49;;;;;;;3.85;1.60;;;;;;;24.51;31.81;101697.13;4989363;28;20042;-74
2022/07/16 01:49:17;;;;;;;3.58;1.90;;;;;;;24.49;31.71;101694.53;5000739;28;20066;-74
2022/07/16 01:51:45;;;;;;;3.50;1.73;;;;;;;24.46;31.51;101692.06;4976440;28;20074;-73
2022/07/16 01:54:13;;;;;;;3.42;1.85;;;;;;;24.45;31.93;101695.06;4987945;28;20043;-74
2022/07/16 01:56:42;;;;;;;3.28;1.77;;;;;;;24.43;32.05;101695.22;4991924;28;20549;-74
2022/07/16 01:59:10;;;;;;;3.90;1.98;;;;;;;24.39;31.93;101698.50;4991589;28;20062;-74
2022/07/16 02:01:38;;;;;;;3.08;1.80;;;;;;;24.36;32.31;101696.09;4989907;28;20624;-74
2022/07/16 02:04:06;;;;;;;3.85;1.67;;;;;;;24.32;32.04;101695.53;4993771;28;20602;-74
2022/07/16 02:06:35;;;;;;;4.32;2.10;;;;;;;24.31;32.23;101695.72;4974069;28;20042;-74
2022/07/16 02:09:03;;;;;;;3.28;1.83;;;;;;;24.27;32.06;101695.19;4991860;28;20099;-74
2022/07/16 02:11:31;;;;;;;4.63;1.83;;;;;;;24.24;32.12;101696.41;4993464;28;20069;-74
2022/07/16 02:14:00;;;;;;;5.03;1.85;;;;;;;24.25;32.57;101691.72;4993349;28;20128;-74
2022/07/16 02:16:28;;;;;;;3.22;1.90;;;;;;;24.21;32.74;101691.19;4991574;28;20046;-74
2022/07/16 02:18:56;;;;;;;3.90;1.88;;;;;;;24.19;32.46;101689.59;4992523;28;20493;-73
2022/07/16 02:21:25;;;;;;;3.28;1.70;;;;;;;24.18;32.75;101690.63;4989862;28;20038;-74
2022/07/16 02:23:53;;;;;;;3.83;1.90;;;;;;;24.17;32.62;101691.69;4990934;28;20089;-74
2022/07/16 02:26:21;;;;;;;3.35;1.80;;;;;;;24.14;32.61;101695.66;4983684;28;20034;-74
2022/07/16 02:28:49;;;;;;;4.00;1.85;;;;;;;24.13;32.88;101685.59;4967292;28;20134;-73
2022/07/16 02:31:18;;;;;;;4.85;2.03;;;;;;;24.14;32.86;101681.78;4989389;28;20042;-74
2022/07/16 02:33:46;;;;;;;4.22;1.75;;;;;;;24.11;32.75;101689.59;4990988;28;20050;-74
2022/07/16 02:36:14;;;;;;;3.38;2.00;;;;;;;24.10;32.91;101685.06;4992933;28;20031;-74
2022/07/16 02:38:42;;;;;;;2.85;1.83;;;;;;;24.09;32.60;101688.88;4994004;28;20043;-74
2022/07/16 02:41:11;;;;;;;3.33;1.98;;;;;;;24.08;32.19;101695.47;4995762;28;20085;-74
2022/07/16 02:43:39;;;;;;;3.30;2.10;;;;;;;24.08;32.44;101689.91;4991020;28;20046;-74
2022/07/16 02:46:07;;;;;;;3.90;1.95;;;;;;;24.07;32.47;101689.03;4991602;28;20066;-74
2022/07/16 02:48:36;;;;;;;4.97;2.35;;;;;;;24.08;32.12;101681.59;4992377;28;20046;-73
2022/07/16 02:51:05;;;;;;;3.60;2.03;;;;;;;24.06;31.83;101689.22;4985622;28;20438;-74
2022/07/16 02:53:33;;;;;;;4.75;2.08;;;;;;;24.05;31.94;101693.06;4992659;28;20181;-74
2022/07/16 02:56:01;;;;;;;4.13;2.00;;;;;;;24.05;31.71;101684.72;4992107;28;20062;-74
2022/07/16 02:58:29;;;;;;;2.90;1.70;;;;;;;24.05;31.81;101688.34;4991003;28;20474;-74
2022/07/16 03:00:57;;;;;;;3.63;2.13;;;;;;;24.04;31.78;101691.31;4991040;28;20214;-73
2022/07/16 03:03:25;;;;;;;3.70;2.22;;;;;;;24.04;31.95;101694.09;4990863;28;20416;-74
2022/07/16 03:05:54;;;;;;;3.70;2.00;;;;;;;24.06;32.09;101694.75;4989777;28;20133;-74
2022/07/16 03:08:22;;;;;;;3.25;1.80;;;;;;;24.03;31.84;101690.44;4973446;28;20124;-74
2022/07/16 03:10:50;;;;;;;3.45;1.90;;;;;;;24.02;32.40;101697.03;4972935;28;20053;-74
2022/07/16 03:13:18;;;;;;;3.67;1.83;;;;;;;24.03;32.04;101692.34;4988547;28;20038;-74
2022/07/16 03:15:47;;;;;;;4.32;1.90;;;;;;;24.03;32.32;101692.34;4988289;28;20041;-74
2022/07/16 03:18:15;;;;;;;5.05;1.83;;;;;;;24.02;32.34;101693.38;4988339;28;20065;-74
2022/07/16 03:20:43;;;;;;;4.75;2.20;;;;;;;24.03;32.06;101697.91;4991533;28;20145;-73
2022/07/16 03:23:12;;;;;;;5.25;1.92;;;;;;;24.06;32.25;101700.31;4990882;28;20065;-74
2022/07/16 03:25:41;;;;;;;3.22;1.98;;;;;;;24.02;32.10;101699.81;4992494;28;20444;-74
2022/07/16 03:28:09;;;;;;;3.03;2.08;;;;;;;24.04;32.32;101703.28;4990562;28;20456;-74
2022/07/16 03:30:38;;;;;;;4.15;2.05;;;;;;;24.04;32.11;101696.88;4987539;28;20458;-74
2022/07/16 03:33:06;;;;;;;4.82;1.90;;;;;;;24.03;32.00;101698.78;4992474;28;20046;-74
2022/07/16 03:35:35;;;;;;;4.35;1.80;;;;;;;24.04;32.44;101702.41;4991250;28;20461;-73
2022/07/16 03:40:50;;;;;;;3.17;1.83;;;;;;;24.03;32.62;101700.66;4993051;28;20070;-74
2022/07/16 03:43:18;;;;;;;4.00;1.95;;;;;;;24.02;32.13;101693.38;4994046;28;20042;-74
2022/07/16 03:45:46;;;;;;;4.70;2.10;;;;;;;24.03;31.98;101697.91;4991274;28;20034;-73
2022/07/16 03:48:14;;;;;;;5.45;2.15;;;;;;;24.01;32.38;101692.50;4991410;28;20046;-74
2022/07/16 03:50:42;;;;;;;3.63;2.10;;;;;;;24.01;32.00;101692.50;4990198;28;20039;-74
2022/07/16 03:53:10;;;;;;;3.58;2.08;;;;;;;24.01;31.90;101699.97;4991693;28;20493;-73
2022/07/16 03:55:38;;;;;;;3.60;2.03;;;;;;;24.01;32.00;101699.97;4972024;28;20106;-74
2022/07/16 03:58:07;;;;;;;3.55;1.90;;;;;;;24.03;32.34;101697.91;4983229;28;20126;-74
2022/07/16 04:00:35;;;;;;;5.15;2.22;;;;;;;24.00;32.31;101701.88;4987562;28;20052;-74
2022/07/16 04:03:04;;;;;;;4.20;2.10;;;;;;;24.03;32.17;101706.22;4992021;28;20034;-73
2022/07/16 04:05:32;;;;;;;3.67;2.00;;;;;;;24.00;32.26;101704.63;4989306;28;20379;-74
2022/07/16 04:08:00;;;;;;;3.70;2.05;;;;;;;24.00;31.86;101704.63;4989098;28;20129;-74
2022/07/16 04:10:28;;;;;;;4.15;1.77;;;;;;;24.01;31.89;101708.28;4986376;28;20485;-74
2022/07/16 04:12:56;;;;;;;3.85;2.15;;;;;;;24.00;31.97;101715.75;4990368;28;20053;-74
2022/07/16 04:15:26;;;;;;;3.72;2.20;;;;;;;24.03;32.20;101711.78;4977021;28;20096;-74
2022/07/16 04:17:54;;;;;;;3.60;1.85;;;;;;;24.00;31.74;101725.97;4989247;28;20120;-74
2022/07/16 04:20:22;;;;;;;3.35;2.00;;;;;;;24.00;32.07;101720.41;4989092;28;20457;-74
2022/07/16 04:22:50;;;;;;;3.97;2.20;;;;;;;23.99;32.19;101727.00;4989465;28;20113;-73
2022/07/16 04:25:19;;;;;;;3.92;2.20;;;;;;;23.98;32.20;101722.47;4987802;28;20053;-73
2022/07/16 04:27:47;;;;;;;4.70;2.35;;;;;;;23.97;32.32;101721.63;4990963;28;20536;-73
2022/07/16 04:30:15;;;;;;;5.03;2.33;;;;;;;23.97;32.08;101720.75;4987398;28;20061;-73
2022/07/16 04:32:45;;;;;;;4.57;2.20;;;;;;;24.00;32.19;101720.41;4988817;28;20100;-73
2022/07/16 04:35:14;;;;;;;5.00;2.30;;;;;;;23.97;31.70;101712.41;4986462;28;20764;-73
2022/07/16 04:37:43;;;;;;;4.32;1.98;;;;;;;23.96;31.90;101711.59;4990714;28;20038;-73
2022/07/16 04:40:13;;;;;;;4.13;2.00;;;;;;;23.96;31.69;101714.34;4986021;28;20058;-73
2022/07/16 04:42:42;;;;;;;4.20;2.33;;;;;;;23.97;31.78;101717.97;4989014;28;20073;-73
2022/07/16 04:45:12;;;;;;;5.20;1.90;;;;;;;23.97;31.86;101715.19;4986752;28;20448;-73
2022/07/16 04:47:40;;;;;;;5.40;2.10;;;;;;;23.96;31.84;101727.34;4989904;28;20560;-72
2022/07/16 04:50:11;;;;;;;3.97;2.10;;;;;;;23.98;31.87;101722.47;4988116;28;20069;-73
2022/07/16 04:52:39;;;;;;;4.28;1.90;;;;;;;23.94;31.74;101726.66;4987657;28;20375;-73
2022/07/16 04:55:08;;;;;;;3.22;2.00;;;;;;;23.96;32.30;101724.59;4986418;28;20162;-73
2022/07/16 04:57:36;;;;;;;4.03;2.08;;;;;;;23.95;31.75;101728.38;4973471;28;20035;-73
2022/07/16 05:00:05;;;;;;;2.97;1.95;;;;;;;23.95;32.08;101725.63;4987819;28;20074;-72
2022/07/16 05:05:21;;;;;;;5.07;2.17;;;;;;;23.94;32.24;101729.41;4984155;28;20125;-71
2022/07/16 05:07:50;;;;;;;3.72;2.03;;;;;;;23.93;32.29;101724.91;4987631;28;20471;-73
2022/07/16 05:10:18;;;;;;;5.40;1.90;;;;;;;23.94;31.86;101729.41;4987113;28;20474;-73
2022/07/16 05:12:46;;;;;;;3.60;1.90;;;;;;;23.93;31.71;101731.31;4989473;28;20062;-72
2022/07/16 05:15:14;;;;;;;4.47;2.00;;;;;;;23.93;31.83;101725.78;4986373;28;20066;-73
2022/07/16 05:17:45;;;;;;;5.00;2.17;;;;;;;23.94;32.31;101726.66;4973343;28;20066;-73
2022/07/16 05:20:13;;;;;;;3.17;1.80;;;;;;;23.94;32.24;101727.53;4991242;28;20449;-73
2022/07/16 05:22:43;;;;;;;3.67;1.75;;;;;;;23.97;31.78;101717.97;4977127;28;20501;-73
2022/07/16 05:25:12;;;;;;;5.15;2.30;;;;;;;23.96;32.24;101735.69;4993642;28;20374;-73
2022/07/16 05:27:40;;;;;;;3.88;1.90;;;;;;;23.96;31.75;101728.22;4994444;28;20413;-73
2022/07/16 05:30:10;;;;;;;3.78;2.03;;;;;;;23.97;32.02;101724.38;4991317;28;20039;-73
2022/07/16 05:32:40;;;;;;;3.95;1.90;;;;;;;23.96;31.81;101730.13;4991796;28;20065;-73
2022/07/16 05:35:09;;;;;;;4.07;1.95;;;;;;;23.98;32.19;101733.56;4991094;28;20074;-73
2022/07/16 05:37:37;;;;;;;3.85;2.03;;;;;;;23.99;31.87;101740.88;4995469;28;20039;-73
2022/07/16 05:40:08;;;;;;;3.38;1.80;;;;;;;24.03;32.34;101745.06;4992694;28;20093;-73
2022/07/16 05:42:36;;;;;;;3.67;2.00;;;;;;;24.00;31.81;101731.50;4994550;28;20038;-74
2022/07/16 05:45:05;;;;;;;3.33;2.00;;;;;;;24.02;31.84;101741.41;4992250;28;20131;-73
2022/07/16 05:47:33;;;;;;;4.35;2.03;;;;;;;24.04;31.83;101741.25;4994299;28;20042;-73
2022/07/16 05:50:02;;;;;;;4.25;2.35;;;;;;;24.05;32.26;101754.09;4993032;28;20046;-73
2022/07/16 05:52:30;;;;;;;2.95;1.90;;;;;;;24.06;32.35;101750.25;4993727;28;20057;-73
2022/07/16 05:54:58;;;;;;;3.35;2.10;;;;;;;24.07;31.89;101750.09;4993117;28;20058;-74
2022/07/16 05:57:27;;;;;;;3.80;1.60;;;;;;;24.10;32.12;101749.75;4994027;28;20037;-74
2022/07/16 05:59:55;;;;;;;5.45;1.83;;;;;;;24.10;32.36;101752.53;4992187;28;20111;-74
2022/07/16 06:02:23;;;;;;;3.28;1.70;;;;;;;24.12;31.86;101763.47;4992308;28;20042;-74
2022/07/16 06:04:52;;;;;;;3.65;1.90;;;;;;;24.14;32.16;101758.59;4992823;28;20446;-73
2022/07/16 06:07:20;;;;;;;3.67;1.83;;;;;;;24.14;31.92;101758.59;4990027;28;20084;-74
2022/07/16 06:09:48;;;;;;;2.90;1.70;;;;;;;24.16;31.86;101762.09;4975666;28;20070;-73
2022/07/16 06:12:16;;;;;;;4.50;2.20;;;;;;;24.18;32.06;101765.56;4990539;28;20068;-73
2022/07/16 06:14:46;;;;;;;3.25;2.00;;;;;;;24.19;31.83;101770.94;4989636;28;20055;-74
2022/07/16 06:17:14;;;;;;;4.25;2.00;;;;;;;24.20;31.82;101771.81;4993094;28;20046;-73
2022/07/16 06:19:42;;;;;;;3.15;1.88;;;;;;;24.21;32.30;101776.38;4991600;28;20133;-73
2022/07/16 06:22:11;;;;;;;3.15;1.75;;;;;;;24.22;32.26;101773.41;4993034;28;20066;-72
2022/07/16 06:24:39;;;;;;;2.95;1.80;;;;;;;24.25;32.24;101775.84;4969753;28;20057;-73
2022/07/16 06:27:07;;;;;;;3.40;1.70;;;;;;;24.29;32.26;101773.63;4994816;28;20455;-73
2022/07/16 06:29:35;;;;;;;3.15;2.00;;;;;;;24.33;32.74;101763.91;4991425;28;20096;-73
2022/07/16 06:32:05;;;;;;;3.13;1.90;;;;;;;24.43;32.59;101772.94;4983692;28;20046;-73
2022/07/16 06:34:33;;;;;;;4.68;2.45;;;;;;;24.47;32.58;101779.88;4993165;28;20073;-73
2022/07/16 06:37:02;;;;;;;4.38;2.03;;;;;;;24.55;32.78;101779.91;4994535;28;20097;-73
2022/07/16 06:39:30;;;;;;;4.13;1.92;;;;;;;24.66;32.96;101775.94;4986144;28;20039;-74
2022/07/16 06:41:58;;;;;;;4.45;2.10;;;;;;;24.77;32.85;101788.63;4993000;28;20104;-73
2022/07/16 06:44:26;;;;;;;4.57;2.25;;;;;;;24.89;32.85;101790.00;4992620;28;20042;-74
2022/07/16 06:46:54;;;;;;;4.25;2.00;;;;;;;25.00;32.48;101789.69;4988614;28;20113;-74
2022/07/16 06:49:24;;;;;;;4.20;2.50;;;;;;;25.15;33.06;101781.53;4974393;28;20050;-74
2022/07/16 06:52:17;;;;;;;4.40;2.47;;;;;;;25.23;32.44;101787.06;4984034;28;20042;-74
2022/07/16 06:54:46;;;;;;;4.65;2.58;;;;;;;25.33;32.78;101791.41;4988782;28;20054;-72
2022/07/16 06:57:14;;;;;;;3.67;2.40;;;;;;;25.46;32.85;101796.41;4993101;28;20049;-75
2022/07/16 06:59:42;;;;;;;4.97;2.53;;;;;;;25.57;32.67;101800.75;4991651;28;20126;-75
2022/07/16 07:02:10;;;;;;;5.30;2.50;;;;;;;25.69;32.86;101802.16;4974109;28;20042;-77
2022/07/16 07:04:39;;;;;;;3.80;2.30;;;;;;;25.82;32.57;101812.69;4974637;28;20078;-77
2022/07/16 07:07:07;;;;;;;4.40;2.60;;;;;;;25.91;32.32;101809.72;4992055;28;20038;-77
2022/07/16 07:09:35;;;;;;;5.32;3.22;;;;;;;26.02;32.34;101806.56;4984101;28;20101;-77
2022/07/16 07:12:04;;;;;;;5.90;2.92;;;;;;;26.12;32.05;101804.41;4984960;28;20050;-73
2022/07/16 07:14:32;;;;;;;5.53;3.08;;;;;;;26.23;32.26;101808.72;4991610;28;20042;-70
2022/07/16 07:17:02;;;;;;;4.88;2.97;;;;;;;26.31;32.20;101811.47;4989407;28;20049;-78
2022/07/16 07:19:30;;;;;;;5.65;3.30;;;;;;;26.39;32.25;101814.22;4990629;28;20038;-78
2022/07/16 07:22:02;;;;;;;5.30;3.45;;;;;;;26.49;31.98;101812.09;5004341;28;20038;-78
2022/07/16 07:24:30;;;;;;;5.60;2.97;;;;;;;26.53;32.28;101807.00;5005719;28;20056;-78
2022/07/16 07:27:14;;;;;;;5.40;2.90;;;;;;;26.61;32.47;101808.84;4992077;28;20062;-73
2022/07/16 07:29:42;;;;;;;5.72;3.03;;;;;;;26.68;32.17;101802.41;4990561;28;20142;-74
2022/07/16 07:32:10;;;;;;;4.60;2.70;;;;;;;26.75;31.93;101810.88;4988594;28;20045;-74
2022/07/16 07:34:38;;;;;;;6.28;3.05;;;;;;;26.82;32.26;101807.16;4992329;28;20044;-76
2022/07/16 07:37:08;;;;;;;4.45;2.50;;;;;;;26.89;32.03;101813.72;4991689;28;20057;-74
2022/07/16 07:39:36;;;;;;;3.83;2.22;;;;;;;26.95;32.23;101816.84;4991153;28;20124;-74
2022/07/16 07:42:05;;;;;;;3.95;2.30;;;;;;;27.00;32.50;101811.59;4987890;28;20061;-74
2022/07/16 07:44:33;;;;;;;4.13;2.65;;;;;;;27.05;32.25;101814.66;4990681;28;20042;-76
2022/07/16 07:47:01;;;;;;;4.45;2.80;;;;;;;27.11;32.21;101816.69;4992878;28;20045;-76
2022/07/16 07:49:29;;;;;;;5.07;2.25;;;;;;;27.15;31.71;101818.94;4991928;28;20045;-78
2022/07/16 07:51:57;;;;;;;3.33;2.40;;;;;;;27.20;31.91;101830.38;4987899;28;20124;-75
2022/07/16 07:54:26;;;;;;;4.47;2.30;;;;;;;27.28;31.66;101832.22;4992040;28;20142;-77
2022/07/16 07:56:54;;;;;;;3.10;2.03;;;;;;;27.32;31.42;101825.25;4988589;28;20401;-74
2022/07/16 07:59:22;;;;;;;3.28;1.80;;;;;;;27.37;31.57;101824.66;4991446;28;20058;-75
2022/07/16 08:01:50;;;;;;;3.33;2.00;;;;;;;27.41;31.62;101832.47;4989448;28;20061;-76
2022/07/16 08:04:18;;;;;;;2.72;1.70;;;;;;;27.44;31.26;101836.78;4971962;28;20066;-77
2022/07/16 08:06:47;;;;;;;3.03;1.90;;;;;;;27.48;31.26;101832.59;4990614;28;20042;-77
2022/07/16 08:09:15;;;;;;;2.58;1.77;;;;;;;27.52;30.93;101833.91;4991045;28;20050;-76
2022/07/16 08:11:44;;;;;;;3.63;2.15;;;;;;;27.56;30.69;101838.09;4982738;28;20061;-76
2022/07/16 08:14:12;;;;;;;3.90;2.50;;;;;;;27.55;30.75;101831.66;4995811;28;20066;-76
2022/07/16 08:16:57;;;;;;;3.17;2.22;;;;;;;27.56;30.97;101833.41;4994411;28;20125;-74
2022/07/16 08:19:25;;;;;;;4.03;2.30;;;;;;;27.57;30.75;101837.06;4990591;28;20046;-77
2022/07/16 08:21:53;;;;;;;4.28;2.80;;;;;;;27.57;30.73;101835.13;4991341;28;20039;-76
2022/07/16 08:27:08;;;;;;;3.40;2.92;;;;;;;27.55;30.52;101848.41;4981662;28;20050;-77
2022/07/16 08:29:37;;;;;;;5.95;3.70;;;;;;;27.52;30.12;101845.06;4988250;28;20509;-76
2022/07/16 08:32:06;;;;;;;4.28;3.00;;;;;;;27.48;30.08;101841.81;4988343;28;20046;-76
2022/07/16 08:34:34;;;;;;;4.88;3.22;;;;;;;27.47;30.29;101851.25;4990494;28;20054;-76
2022/07/16 08:37:07;;;;;;;3.65;2.72;;;;;;;27.47;29.76;101850.38;4990109;28;20043;-76
2022/07/16 08:39:35;;;;;;;3.65;2.60;;;;;;;27.46;29.93;101834.69;4976821;28;20046;-76
2022/07/16 08:42:03;;;;;;;2.72;1.80;;;;;;;27.47;29.64;101853.16;4969515;28;20109;-74
2022/07/16 08:44:34;;;;;;;2.95;1.83;;;;;;;27.50;29.61;101850.88;4968654;28;20070;-75
2022/07/16 08:47:02;;;;;;;2.60;1.65;;;;;;;27.51;29.63;101860.06;4968372;28;20038;-74
2022/07/16 08:49:30;;;;;;;3.67;1.40;;;;;;;27.54;29.32;101862.53;4978746;28;20385;-75
2022/07/16 08:52:02;;;;;;;1.98;1.27;;;;;;;27.61;28.66;101861.59;4987798;28;20152;-74
2022/07/16 08:54:31;;;;;;;3.38;1.58;;;;;;;27.62;28.83;101866.09;4978955;28;20043;-75
2022/07/16 08:57:00;;;;;;;2.95;1.10;;;;;;;27.68;28.27;101867.25;4970314;28;20425;-75
2022/07/16 08:59:29;;;;;;;3.92;1.13;;;;;;;27.71;28.44;101871.59;4967182;28;20129;-77
2022/07/16 09:01:58;;;;;;;2.15;1.15;;;;;;;27.75;27.85;101876.63;4969282;28;20046;-76
2022/07/16 09:04:26;;;;;;;2.35;0.85;;;;;;;27.76;28.33;101877.47;4969275;28;20051;-77
2022/07/16 09:06:54;;;;;;;1.92;1.10;;;;;;;27.81;28.16;101875.88;4970449;28;20474;-77
2022/07/16 09:09:22;;;;;;;1.48;0.82;;;;;;;27.85;27.86;101887.50;4968888;28;20442;-77
2022/07/16 09:11:51;;;;;;;1.33;1.08;;;;;;;27.89;27.50;101883.28;4971422;28;20066;-78
2022/07/16 09:14:19;;;;;;;1.95;1.10;;;;;;;27.94;27.72;101889.16;4970379;28;20038;-79
2022/07/16 09:16:49;;;;;;;2.53;1.05;;;;;;;28.01;27.11;101890.97;4971482;28;20105;-78
2022/07/16 09:19:20;;;;;;;2.30;1.20;;;;;;;28.09;26.87;101903.13;4971465;28;20134;-78
2022/07/16 09:22:01;;;;;;;2.80;1.00;;;;;;;28.16;26.56;101904.13;4964820;28;20049;-77
2022/07/16 09:24:38;;;;;;;1.77;0.85;;;;;;;28.24;26.66;101890.06;4965365;28;20133;-77
2022/07/16 09:27:08;;;;;;;3.20;1.20;;;;;;;28.30;27.11;101894.88;4972279;28;20051;-78
2022/07/16 09:29:43;;;;;;;3.03;1.05;;;;;;;28.37;27.04;101901.41;4968592;28;20042;-78
2022/07/16 09:32:12;;;;;;;3.58;1.20;;;;;;;28.44;26.72;101904.31;4969961;28;20097;-78
2022/07/16 09:34:41;;;;;;;3.10;1.27;;;;;;;28.53;26.92;101900.34;4971085;28;20377;-80
2022/07/16 09:37:09;;;;;;;2.47;1.20;;;;;;;28.58;27.04;101909.03;4970433;28;20050;-77
2022/07/16 09:39:46;;;;;;;1.83;0.90;;;;;;;28.70;26.11;101919.50;4967622;28;20035;-80
2022/07/16 09:42:15;;;;;;;1.33;0.90;;;;;;;28.73;26.42;101921.91;4987445;28;20476;-82
2022/07/16 09:44:44;;;;;;;1.45;1.05;;;;;;;28.81;26.28;101920.09;4971966;28;20092;-81
2022/07/16 09:47:14;;;;;;;2.75;1.23;;;;;;;28.88;26.05;101910.72;4965338;28;20051;-77
2022/07/16 09:49:53;;;;;;;2.60;1.10;;;;;;;28.96;25.57;101918.13;4966872;28;20049;-78
2022/07/16 09:52:30;;;;;;;1.67;0.90;;;;;;;28.99;25.00;101912.16;4965364;28;20130;-85
2022/07/16 09:54:58;;;;;;;1.42;0.90;;;;;;;29.01;25.83;101907.19;4960711;28;20050;-88
2022/07/16 09:57:28;;;;;;;2.05;0.90;;;;;;;29.07;25.98;101912.03;4969143;28;20120;-87
2022/07/16 09:59:58;;;;;;;1.83;0.95;;;;;;;29.13;25.91;101920.47;4976737;28;20049;-85
2022/07/16 10:02:39;;;;;;;3.28;1.20;;;;;;;29.18;25.97;101919.00;4976227;28;20046;-77
2022/07/16 10:05:09;;;;;;;2.50;0.95;;;;;;;29.29;25.39;101910.97;4963082;28;20434;-78
2022/07/16 10:07:39;;;;;;;2.03;0.95;;;;;;;29.36;25.57;101925.03;4973360;28;20105;-79
2022/07/16 10:10:08;;;;;;;1.73;0.82;;;;;;;29.41;25.66;101916.91;4976459;28;20470;-83
2022/07/16 10:12:37;;;;;;;2.03;1.10;;;;;;;29.49;25.32;101922.34;4972658;28;20045;-79
2022/07/16 10:15:06;;;;;;;1.55;0.70;;;;;;;29.58;25.25;101923.09;4966977;28;20122;-75
2022/07/16 10:17:37;;;;;;;1.42;0.82;;;;;;;29.66;25.21;101926.59;4974113;28;20035;-77
2022/07/16 10:20:09;;;;;;;2.15;0.90;;;;;;;29.74;25.07;101920.88;4962464;28;20043;-77
2022/07/16 10:22:40;;;;;;;1.55;1.05;;;;;;;29.81;24.94;101930.19;4971418;28;20046;-73
2022/07/16 10:25:14;;;;;;;2.13;0.95;;;;;;;29.93;24.55;101933.31;4955225;28;20047;-76
2022/07/16 10:27:59;;;;;;;1.65;0.80;;;;;;;29.99;24.69;101938.09;4975053;28;20125;-76
2022/07/16 10:30:29;;;;;;;3.60;1.10;;;;;;;30.04;24.78;101943.13;4945066;29;20050;-82
2022/07/16 10:33:12;;;;;;;1.75;1.00;;;;;;;30.11;24.21;101938.44;4982908;28;20057;-77
2022/07/16 10:35:44;;;;;;;1.75;0.98;;;;;;;30.12;24.58;101943.81;4972453;28;20058;-80
2022/07/16 10:38:16;;;;;;;3.88;1.02;;;;;;;30.18;24.39;101947.75;4996772;28;20034;-79
2022/07/16 10:41:11;;;;;;;1.65;1.08;;;;;;;30.18;24.72;101950.53;4988912;28;20062;-75
2022/07/16 10:43:39;;;;;;;1.85;1.10;;;;;;;30.18;24.66;101947.75;4978989;28;20047;-75
2022/07/16 10:46:09;;;;;;;1.85;0.98;;;;;;;30.22;24.23;101938.72;4991329;28;20050;-76
2022/07/16 10:49:15;;;;;;;2.20;1.35;;;;;;;30.24;24.18;101944.09;4989061;28;20039;-77
2022/07/16 10:51:57;;;;;;;2.15;1.10;;;;;;;30.27;24.56;101935.31;4979731;28;20505;-84
2022/07/16 10:54:30;;;;;;;1.67;1.00;;;;;;;30.33;24.17;101951.28;4991762;28;20136;-81
2022/07/16 10:57:00;;;;;;;9.02;1.38;;;;;;;30.35;24.47;101940.75;4995183;28;20038;-77
2022/07/16 10:59:30;;;;;;;4.65;1.20;;;;;;;30.43;23.81;101950.91;4972869;28;20075;-77
2022/07/16 11:02:02;;;;;;;1.70;0.90;;;;;;;30.46;23.67;101958.91;4990758;28;20496;-77
2022/07/16 11:04:33;;;;;;;2.33;1.08;;;;;;;30.43;23.57;101957.38;4990577;28;20100;-80
2022/07/16 11:07:03;;;;;;;2.22;1.30;;;;;;;30.42;23.63;101960.38;4992438;28;20051;-76
2022/07/16 11:09:35;;;;;;;2.53;1.10;;;;;;;30.42;23.33;101960.38;4993417;28;20196;-77
2022/07/16 11:12:12;;;;;;;1.88;0.93;;;;;;;30.39;23.27;101953.25;4994167;28;20089;-82
2022/07/16 11:14:41;;;;;;;2.25;0.95;;;;;;;30.34;23.82;101954.94;4993460;28;20034;-79
2022/07/16 11:17:09;;;;;;;2.03;1.00;;;;;;;30.33;23.77;101958.81;4992156;28;20050;-77
2022/07/16 11:19:39;;;;;;;1.40;1.00;;;;;;;30.33;23.81;101962.50;4991351;28;20056;-76
2022/07/16 11:22:12;;;;;;;2.63;1.00;;;;;;;30.34;23.78;101955.81;4974872;28;20050;-76
2022/07/16 11:24:47;;;;;;;2.55;1.10;;;;;;;30.40;23.20;101962.53;4990938;28;20046;-76
2022/07/16 11:27:16;;;;;;;1.40;0.90;;;;;;;30.40;23.49;101973.72;4992557;28;20034;-76
2022/07/16 11:29:44;;;;;;;2.40;0.90;;;;;;;30.43;23.53;101973.34;4987750;28;20167;-76
2022/07/16 11:32:14;;;;;;;2.38;1.10;;;;;;;30.49;23.50;101973.38;4991220;28;20105;-75
2022/07/16 11:34:42;;;;;;;1.85;1.00;;;;;;;30.52;23.19;101975.81;4992130;28;20070;-77
2022/07/16 11:37:11;;;;;;;2.25;1.10;;;;;;;30.58;23.46;101976.91;4989890;28;20039;-76
2022/07/16 11:39:39;;;;;;;2.90;1.00;;;;;;;30.62;23.19;101965.09;4993268;28;20054;-80
2022/07/16 11:42:09;;;;;;;2.63;1.00;;;;;;;30.71;22.99;101962.97;4986087;28;20409;-85
2022/07/16 11:44:39;;;;;;;2.83;0.90;;;;;;;30.77;23.30;101976.16;4974805;28;20730;-82
2022/07/16 11:47:08;;;;;;;3.03;1.10;;;;;;;30.83;22.89;101982.84;4994375;28;20469;-80